Gakona, AK

11:36 AM AKDT on July 31, 2014 (GMT -0800)
Gulkana (PAGK) Elev 1578 ft | 62.16 °N, 145.46 °W | Change Station

Current weather conditions updated 43 minutes ago

Clear
Clear
61 °F
Feels Like 61 °F
N
4
Wind Variable Wind from Variable

Today is forecast to be nearly the same temperature as yesterday.

Today
High -- | Low -- °F
--% Chance of Precip.
Yesterday
High -- | Low -- °F
Precip. -- in
5:04 AM 10:29 PM
Waxing Crescent, 20% visible
Pressure 30.29 in
Visibility 10.0 miles
Clouds Clear
Dew Point 47 °F
Humidity 60%
Rainfall 0.00 in
Snow Depth Not available.
UV 4 out of 12
Pollen Not available.
Air Quality Not available.
Flu Activity Not available.
METAR PAGK 311853Z AUTO VRB03KT 10SM CLR 16/08 A3029 RMK AO2 SLP256 T01610083 TSNO $

More Conditions Fewer Conditions

Pressure 30.29 in
Visibility 10.0 miles
Clouds Clear
Dew Point 47 °F
Humidity 60%
Rainfall 0.00 in
Snow Depth Not available.
UV 4 out of 12
Pollen Not available.
Air Quality Not available.
Flu Activity Not available.
METAR PAGK 311853Z AUTO VRB03KT 10SM CLR 16/08 A3029 RMK AO2 SLP256 T01610083 TSNO $

More Conditions Fewer Conditions

10-Day Weather Forecast

Almanac

Astronomy

Jul. 31, 2014 Rise Set
Actual Time 5:04 AM AKDT 10:29 PM AKDT
Civil Twilight 3:51 AM AKDT 11:41 PM AKDT
Nautical Twilight 2:20 AM AKDT 1:15 AM AKDT
Astronomical Twilight Sun does not rise Sun does not rise
Moon 11:25 AM AKDT 10:56 PM AKDT
Length of Visible Light 19h 49m
Length of Day
17h 25m
Tomorrow will be 5m 34s shorter.
Waxing Crescent, 20% of the Moon is Illuminated
Today
Waxing Crescent
Aug 3
First Quarter
Aug 10
Full
Aug 17
Last Quarter
Aug 25
New

Community

WunderPhotos

Upload Photos

1,739,426 photos uploaded!

Nearby

Snow Depth

Station Depth Elevation
Upper Tsaina River 0 in 1750 ft
Moraine 0 in 2100 ft
Granite Creek 0 in 1240 ft
Susitna Valley High 2 in 375 ft
Indian Pass 1 in 2300 ft

Earthquake Activity

City Distance Mag. Time & Date
No recent earthquake activity has been reported nearby.
Minimum magnitude displayed is 2.5.

Coastal Water Temperatures

Place Temperature
No Stations Reporting

Nearby Weather Stations

Station Location Temp. Dew Point Humidity Wind Precip. Elev Updated Type
Copper Bluff Subdivision, Gakona, AK 62.2 °F 50 °F 64% SSE  at  0.0 mph 0.00 in / hr 1625 ft 11:22 AM AKDT Normal
AKDOT Glenn Highway @ MP 176.6, Glennallen, AK 60 °F 45 °F 56% WNW  at  4 mph 0.00 in / hr 2112 ft 10:15 AM AKDT MADIS
Klutina River, Copper Center, AK 65.0 °F 48 °F 54% East  at  1.0 mph 0.00 in / hr 1100 ft 11:36 AM AKDT Rapid Fire
RAWS KLAWASI AK, Gakona, AK 58 °F 45 °F 61% South  at  14 mph 0.00 in / hr 3100 ft 10:56 AM AKDT MADIS

Show More Stations Show Fewer Stations